Hauptseite
METAR-TAF:

METAR-TAF

Flughäfen :

Flughafen Bamako

Bamako, Mali

Breite: 12-32N, Länge: 007-57W, Höhe: 380 m

Beobachtung

Neuester Wetterbericht von vor 36 Minuten, um 20:30 UTC
Wind 6 kt aus Ost/Nordost
Temperatur 27°C
Luftfeuchtigkeit 34%
Luftdruck 1012 hPa
Sichtweite 10 km oder mehr
keine Wolken unter 1500 m und keine Kumulonimbus oder Gewitterwolken

METAR: GABS 142030Z 07006KT CAVOK 27/10 Q1012 NOSIG

Zeit: 21:06 (21:06 UTC)

Prognose

Neuester Wetterbericht von vor 4 Stunden und 6 Minuten, um 17:00 UTC
Gültige Prognose vom 14 um 18 UTC bis 15 um 24 UTC
Wind 8 kt aus Ost, Böen bis zu 18 kt
Sichtweite 10 km oder mehr
keine Wolken unter 1500 m und keine Kumulonimbus oder Gewitterwolken
Zeitweise
vom 15 um 06 UTC bis 15 um 11 UTC
Sichtweite: 4000 m
trockener Dunst

TAF: GABS 141700Z 1418/1524 08008G18KT CAVOK TEMPO 1506/1511 4000 HZ

Wetterbeobachtungen und Prognosen von mehr als 4000 Flughäfen (METAR und TAF Bericht).

Die verfügbaren Stationen werden durch gelbe und rote Markierungen auf der Karte dargestellt.

Führen Sie die Maus auf sie, um den Namen der Station zu sehen.

Darauf klicken, um die Beobachtung von Wetterbeobachtungen und Prognosen zu sehen.

Um die Karte zu ändern : klicken Sie auf den grünen Tasten mit einem schwarzen Kreuz Zum Vergrößern, auf den grünen Button mit einem Gedankenstrich zu verkleinern, oder auf die grünen Pfeile für benachbarte Karten.


METAR-TAF: